Terminal Aerodrome Forecast
Issued by NWS

Home | Current Version | Previous Version | Text Only | Print | Product List | Glossary On
Versions: 1 2 3 4 5 6 7 8 9 10 11 12 13 14 15 16 17 18 19 20 21 22 23 24 25 26 27 28 29 30 31 32 33 34 35 36 37 38
000
FTUS41 KBOX 271221 AAA
TAFHYA
TAF AMD
KHYA 271221Z 2712/2812 35008G19KT P6SM -SHRASN BKN015 OVC020
     FM271500 35007KT P6SM BKN050
     FM272200 31004KT P6SM OVC020
     FM280300 VRB03KT 2SM -SN OVC015
     FM281100 32007KT 2SM -SN OVC010=

USA.gov is the U.S. government's official web portal to all federal, state and local government web resources and services.